Terminal Aerodrome Forecast
Issued by NWS Blacksburg, VA

Home | Current Version | Previous Version | Text Only | Print | Product List | Glossary On
Versions: 1 2 3 4 5 6 7 8 9 10 11 12 13 14 15 16 17 18 19 20
000
FTUS41 KRNK 071730
TAFLYH
TAF
KLYH 071730Z 0718/0818 30004KT P6SM SKC
     FM072000 02003KT P6SM SCT150
     FM080500 00000KT P6SM SCT040 OVC100
     FM081500 30007KT P6SM BKN080=

USA.gov is the U.S. government's official web portal to all federal, state and local government web resources and services.